Time;durP1;ratioP1;P1;durP2;ratioP2;P2;SDS_P1;SDS_P2;PMS_P1;PMS_P2;Temp;Humidity;BMP_temperature;BMP_pressure;BME280_temperature;BME280_humidity;BME280_pressure;Samples;Min_cycle;Max_cycle;Signal;HPM_P1;HPM_P2
2022/09/03 00:01:00;;;;;;;5.47;2.65;;;;;;;16.70;55.99;99832.06;7618607;32;37908;-70
2022/09/03 00:05:36;;;;;;;5.95;2.53;;;;;;;16.79;55.92;99835.69;7605274;32;37210;-69
2022/09/03 00:09:58;;;;;;;4.00;2.10;;;;;;;16.75;55.91;99834.69;7605753;32;39379;-69
2022/09/03 00:14:48;;;;;;;3.42;2.00;;;;;;;16.84;55.51;99843.88;7599216;32;39748;-70
2022/09/03 00:19:05;;;;;;;8.27;2.40;;;;;;;16.86;55.10;99838.84;7627370;32;37836;-69
2022/09/03 00:23:25;;;;;;;5.53;2.50;;;;;;;16.91;55.67;99834.37;7616919;32;36952;-69
2022/09/03 00:27:44;;;;;;;5.05;2.70;;;;;;;16.88;54.84;99839.38;7592447;32;39855;-69
2022/09/03 00:32:22;;;;;;;4.05;2.30;;;;;;;16.68;55.28;99840.63;7595554;32;40756;-68
2022/09/03 00:36:41;;;;;;;4.28;2.40;;;;;;;16.89;54.63;99831.91;7624062;32;37948;-69
2022/09/03 00:41:22;;;;;;;7.40;2.67;;;;;;;16.73;55.13;99834.22;7624829;32;37092;-69
2022/09/03 00:45:50;;;;;;;5.47;2.70;;;;;;;16.57;55.31;99841.19;7628406;32;39597;-69
2022/09/03 00:50:18;;;;;;;8.63;2.55;;;;;;;16.55;55.63;99843.44;7625747;32;40851;-68
2022/09/03 00:54:42;;;;;;;6.00;2.55;;;;;;;16.29;56.30;99846.75;7620499;32;37668;-69
2022/09/03 00:59:29;;;;;;;3.40;2.40;;;;;;;16.55;55.66;99847.00;7598797;32;37127;-69
2022/09/03 01:04:05;;;;;;;4.47;2.30;;;;;;;16.62;55.39;99847.38;7615173;32;39431;-69
2022/09/03 01:08:49;;;;;;;7.55;2.35;;;;;;;16.32;56.54;99854.41;7604523;32;39880;-69
2022/09/03 01:13:15;;;;;;;;;;;;;;;16.31;56.34;99850.81;7604829;32;38088;-70
2022/09/03 01:17:55;;;;;;;5.37;2.60;;;;;;;16.44;56.03;99846.41;7629295;32;37398;-69
2022/09/03 01:22:34;;;;;;;3.90;2.25;;;;;;;16.02;57.45;99858.59;7630272;32;39107;-70
2022/09/03 01:26:53;;;;;;;5.53;2.60;;;;;;;15.85;58.14;99867.44;7608748;32;40186;-69
2022/09/03 01:31:12;;;;;;;5.07;2.95;;;;;;;15.81;57.96;99864.50;7603674;32;37892;-69
2022/09/03 01:35:47;;;;;;;5.32;2.58;;;;;;;16.25;56.45;99859.50;7605843;32;38679;-69
2022/09/03 01:40:28;;;;;;;5.43;2.53;;;;;;;16.08;56.60;99871.94;7627804;32;39404;-70
2022/09/03 01:45:18;;;;;;;5.75;2.50;;;;;;;16.22;56.27;99860.12;7626000;32;39502;-69
2022/09/03 01:49:40;;;;;;;5.12;2.80;;;;;;;15.99;57.19;99865.53;7607253;32;37985;-69
2022/09/03 01:54:09;;;;;;;5.78;2.40;;;;;;;16.14;56.64;99870.72;7603480;32;37103;-69
2022/09/03 01:59:06;;;;;;;4.25;2.37;;;;;;;15.90;57.63;99870.09;7633379;32;39436;-69
2022/09/03 02:03:23;;;;;;;5.07;2.25;;;;;;;15.65;58.49;99872.19;7629670;32;40927;-69
2022/09/03 02:07:43;;;;;;;4.97;2.78;;;;;;;15.95;57.32;99872.75;7607312;32;37970;-69
2022/09/03 02:12:13;;;;;;;4.62;2.50;;;;;;;16.08;57.04;99877.44;7607074;32;37712;-69
2022/09/03 02:16:32;;;;;;;5.12;2.28;;;;;;;15.87;57.65;99868.00;7605408;32;39065;-69
2022/09/03 02:20:49;;;;;;;4.35;2.45;;;;;;;16.07;56.99;99873.06;7599695;32;40730;-69
2022/09/03 02:25:06;;;;;;;5.20;2.83;;;;;;;15.84;57.84;99874.09;7610416;32;38367;-69
2022/09/03 02:29:23;;;;;;;5.12;2.35;;;;;;;15.79;57.74;99871.44;7629051;32;37076;-70
2022/09/03 02:33:42;;;;;;;4.05;2.25;;;;;;;15.71;57.93;99886.66;7629067;32;39340;-69
2022/09/03 02:38:08;;;;;;;5.18;2.55;;;;;;;15.72;57.75;99878.09;7600566;32;39609;-69
2022/09/03 02:42:24;;;;;;;6.70;2.92;;;;;;;15.74;57.63;99867.62;7603324;32;37830;-69
2022/09/03 02:46:47;;;;;;;7.37;2.60;;;;;;;15.62;58.28;99872.81;7623821;32;37030;-69
2022/09/03 02:51:04;;;;;;;9.05;3.03;;;;;;;15.30;59.51;99868.19;7632461;32;40123;-69
2022/09/03 02:55:29;;;;;;;5.03;2.50;;;;;;;15.34;59.04;99878.25;7621076;32;39913;-69
2022/09/03 02:59:45;;;;;;;5.55;2.30;;;;;;;15.39;58.80;99875.41;7606358;32;38396;-69
2022/09/03 03:04:01;;;;;;;4.20;2.75;;;;;;;15.49;58.50;99868.94;7608106;32;37853;-69
2022/09/03 03:08:20;;;;;;;6.37;2.55;;;;;;;15.48;58.76;99870.03;7632481;32;39305;-69
2022/09/03 03:12:36;;;;;;;8.40;2.90;;;;;;;15.50;58.89;99865.06;7632070;32;40499;-69
2022/09/03 03:16:52;;;;;;;6.45;2.72;;;;;;;15.54;58.71;99873.53;7613290;32;37942;-69
2022/09/03 03:21:10;;;;;;;4.50;2.58;;;;;;;15.44;58.68;99870.97;7606293;32;36773;-69
2022/09/03 03:25:27;;;;;;;6.10;2.80;;;;;;;15.21;59.31;99873.53;7616312;32;41086;-69
2022/09/03 03:29:43;;;;;;;5.85;2.90;;;;;;;15.14;59.27;99884.09;7632076;32;39936;-69
2022/09/03 03:34:02;;;;;;;6.30;2.60;;;;;;;15.28;58.86;99879.47;7630701;32;37919;-69
2022/09/03 03:38:18;;;;;;;7.65;2.60;;;;;;;15.45;58.18;99884.38;7606098;32;37833;-70
2022/09/03 03:42:34;;;;;;;5.25;2.50;;;;;;;15.54;57.93;99885.31;7605925;32;39375;-69
2022/09/03 03:46:50;;;;;;;6.60;2.85;;;;;;;15.46;58.39;99893.44;7623984;32;41276;-69
2022/09/03 03:51:09;;;;;;;7.28;3.20;;;;;;;15.60;57.95;99897.03;7630769;32;37998;-69
2022/09/03 03:55:25;;;;;;;5.60;3.00;;;;;;;15.59;58.07;99900.88;7622232;32;36237;-69
2022/09/03 03:59:41;;;;;;;5.55;2.85;;;;;;;15.70;57.68;99904.28;7605667;32;39467;-69
2022/09/03 04:03:59;;;;;;;5.28;2.85;;;;;;;15.52;58.03;99895.81;7605641;32;39977;-69
2022/09/03 04:08:15;;;;;;;5.32;2.72;;;;;;;15.50;58.01;99895.28;7579807;33;38007;-69
2022/09/03 04:12:32;;;;;;;4.75;2.30;;;;;;;15.55;57.92;99900.69;7579810;33;36978;-70
2022/09/03 04:16:48;;;;;;;3.42;2.35;;;;;;;15.31;58.50;99900.81;7597436;32;39465;-69
2022/09/03 04:21:12;;;;;;;3.35;2.55;;;;;;;15.36;57.86;99919.97;7613136;32;39895;-70
2022/09/03 04:25:28;;;;;;;4.97;2.40;;;;;;;15.48;57.42;99915.94;7631461;32;38169;-70
2022/09/03 04:29:44;;;;;;;5.57;2.62;;;;;;;15.54;57.41;99917.50;7629606;32;37355;-70
2022/09/03 04:34:01;;;;;;;6.15;2.62;;;;;;;15.15;58.56;99924.19;7631480;32;40096;-70
2022/09/03 04:38:17;;;;;;;5.72;2.58;;;;;;;15.47;57.93;99917.03;7631231;32;39990;-70
2022/09/03 04:42:33;;;;;;;4.12;2.37;;;;;;;15.45;58.39;99916.53;7608080;32;37944;-74
2022/09/03 04:46:52;;;;;;;4.37;2.47;;;;;;;15.37;60.59;99921.59;7605211;32;37041;-71
2022/09/03 04:51:13;;;;;;;5.75;2.55;;;;;;;15.39;59.91;99929.53;7620129;32;40274;-72
2022/09/03 04:55:34;;;;;;;4.37;2.65;;;;;;;15.21;59.78;99933.94;7631069;32;39050;-69
2022/09/03 04:59:50;;;;;;;4.93;2.60;;;;;;;15.24;59.76;99932.53;7623529;32;39545;-69
2022/09/03 05:04:07;;;;;;;5.95;2.80;;;;;;;15.40;59.58;99929.25;7604873;32;38370;-69
2022/09/03 05:08:25;;;;;;;4.65;2.87;;;;;;;15.39;59.86;99929.53;7607554;32;40117;-70
2022/09/03 05:12:41;;;;;;;6.93;2.67;;;;;;;15.53;59.60;99927.66;7610401;32;40503;-69
2022/09/03 05:16:57;;;;;;;6.07;2.70;;;;;;;15.40;60.28;99926.50;7633925;32;38724;-70
2022/09/03 05:21:16;;;;;;;4.12;2.80;;;;;;;15.23;60.67;99931.75;7623064;32;37149;-70
2022/09/03 05:25:33;;;;;;;5.00;2.78;;;;;;;15.20;60.55;99940.56;7632775;32;39368;-69
2022/09/03 05:29:49;;;;;;;4.90;2.78;;;;;;;15.41;60.42;99932.81;7627150;32;39604;-70
2022/09/03 05:34:06;;;;;;;5.57;2.67;;;;;;;15.62;60.25;99936.00;7607324;32;38430;-70
2022/09/03 05:38:22;;;;;;;8.23;3.03;;;;;;;15.58;60.44;99937.75;7601512;32;37079;-70
2022/09/03 05:42:38;;;;;;;5.80;3.03;;;;;;;15.76;60.33;99934.16;7604743;32;39265;-70
2022/09/03 05:46:54;;;;;;;5.50;2.80;;;;;;;15.94;60.12;99937.12;7607486;32;39968;-70
2022/09/03 05:51:15;;;;;;;8.05;2.90;;;;;;;16.17;59.53;99942.72;7607423;32;37943;-71
2022/09/03 05:55:32;;;;;;;6.22;2.55;;;;;;;16.17;59.18;99938.03;7607513;32;38070;-71
2022/09/03 05:59:49;;;;;;;6.75;3.03;;;;;;;16.44;59.04;99945.47;7607467;32;39339;-71
2022/09/03 06:04:15;;;;;;;10.15;2.58;;;;;;;16.60;58.53;99945.97;7607297;32;39738;-71
2022/09/03 06:08:31;;;;;;;8.10;2.70;;;;;;;16.74;57.85;99932.16;7631284;32;37789;-71
2022/09/03 06:12:50;;;;;;;5.35;3.08;;;;;;;16.89;57.32;99931.84;7633277;32;37035;-71
2022/09/03 06:17:10;;;;;;;11.75;2.30;;;;;;;17.07;56.36;99935.56;7620280;32;40038;-70
2022/09/03 06:21:26;;;;;;;5.28;2.42;;;;;;;17.10;57.37;99931.38;7632940;32;40844;-70
2022/09/03 06:25:42;;;;;;;7.65;2.83;;;;;;;17.27;56.42;99926.00;7626003;32;37797;-70
2022/09/03 06:29:58;;;;;;;4.78;2.50;;;;;;;17.49;55.75;99916.09;7606850;32;37839;-70
2022/09/03 06:34:17;;;;;;;4.32;2.47;;;;;;;17.86;55.16;99911.28;7607613;32;39488;-70
2022/09/03 06:38:37;;;;;;;4.62;2.15;;;;;;;17.70;55.60;99921.88;7606931;32;38960;-70
2022/09/03 06:43:01;;;;;;;6.90;2.67;;;;;;;18.00;55.77;99923.00;7601242;32;37915;-70
2022/09/03 06:47:17;;;;;;;4.53;2.25;;;;;;;18.52;54.10;99916.84;7610774;32;37528;-76
2022/09/03 06:51:33;;;;;;;3.97;2.40;;;;;;;18.95;53.97;99907.81;7632841;32;39815;-75
2022/09/03 06:55:54;;;;;;;8.55;3.20;;;;;;;19.21;52.51;99906.97;7626688;32;40742;-73
2022/09/03 07:00:11;;;;;;;11.82;2.58;;;;;;;19.43;51.47;99914.25;7621303;32;37913;-75
2022/09/03 07:04:27;;;;;;;7.40;2.37;;;;;;;19.78;52.20;99919.75;7614611;32;36999;-74
2022/09/03 07:08:45;;;;;;;3.75;2.60;;;;;;;19.98;52.09;99911.84;7631328;32;40329;-77
2022/09/03 07:13:01;;;;;;;7.45;2.95;;;;;;;20.15;51.50;99916.50;7614169;32;39580;-75
2022/09/03 07:17:17;;;;;;;5.05;2.65;;;;;;;20.49;49.92;99904.44;7606464;32;37576;-77
2022/09/03 07:21:37;;;;;;;4.32;2.53;;;;;;;20.50;49.71;99897.72;7606379;32;37258;-76
2022/09/03 07:25:55;;;;;;;5.65;2.90;;;;;;;20.98;48.06;99895.59;7612196;32;39265;-70
2022/09/03 07:30:11;;;;;;;6.00;2.67;;;;;;;21.36;46.98;99903.72;7623868;32;40713;-69
2022/09/03 07:34:28;;;;;;;5.82;2.90;;;;;;;21.51;46.62;99909.81;7609352;32;37999;-69
2022/09/03 07:38:44;;;;;;;7.07;2.83;;;;;;;21.57;46.38;99905.66;7617540;32;37888;-70
2022/09/03 07:43:03;;;;;;;10.15;3.00;;;;;;;22.00;46.05;99900.75;7625511;32;39635;-74
2022/09/03 07:47:19;;;;;;;5.28;2.65;;;;;;;21.09;47.48;99894.03;7632259;32;40679;-75
2022/09/03 07:51:41;;;;;;;9.68;2.90;;;;;;;21.80;46.59;99899.69;7619243;32;37971;-75
2022/09/03 07:56:05;;;;;;;5.10;2.53;;;;;;;22.08;45.03;99892.31;7626753;32;37223;-76
2022/09/03 08:00:21;;;;;;;;;;;;;;;22.07;45.95;99898.22;7609339;32;39997;-76
2022/09/03 08:04:37;;;;;;;5.25;2.60;;;;;;;22.31;44.09;99894.66;7627651;32;40970;-77
2022/09/03 08:08:58;;;;;;;6.50;3.00;;;;;;;22.35;44.25;99903.88;7631789;32;37555;-76
2022/09/03 08:13:20;;;;;;;5.07;2.35;;;;;;;22.58;44.48;99904.22;7611589;32;37749;-76
2022/09/03 08:17:36;;;;;;;8.40;2.62;;;;;;;22.72;42.77;99903.84;7620444;32;39309;-70
2022/09/03 08:21:53;;;;;;;11.05;3.10;;;;;;;22.73;40.14;99908.22;7611556;32;39927;-71
2022/09/03 08:26:10;;;;;;;6.60;2.75;;;;;;;22.89;41.33;99902.75;7631435;32;37874;-70
2022/09/03 08:30:27;;;;;;;5.53;2.28;;;;;;;23.13;39.65;99899.12;7629543;32;37221;-71
2022/09/03 08:34:43;;;;;;;4.28;2.28;;;;;;;23.17;37.64;99897.22;7598077;32;39224;-71
2022/09/03 08:39:03;;;;;;;4.07;1.95;;;;;;;23.08;38.61;99890.19;7602391;32;39603;-69
2022/09/03 08:43:19;;;;;;;4.93;2.15;;;;;;;22.90;38.92;99895.22;7602840;32;38486;-71
2022/09/03 08:47:50;;;;;;;4.65;2.28;;;;;;;23.39;38.55;99898.62;7605018;32;37403;-70
2022/09/03 08:52:38;;;;;;;5.85;2.47;;;;;;;23.05;39.53;99886.97;7557545;33;39388;-70
2022/09/03 08:56:55;;;;;;;4.62;2.35;;;;;;;23.52;39.34;99888.25;7568587;33;39767;-70
2022/09/03 09:01:33;;;;;;;8.25;2.10;;;;;;;22.67;39.53;99887.41;7584153;32;37876;-70
2022/09/03 09:06:17;;;;;;;4.00;2.05;;;;;;;23.22;38.79;99885.84;7628980;32;37029;-70
2022/09/03 09:10:48;;;;;;;5.50;1.90;;;;;;;23.83;38.29;99886.69;7612578;32;39285;-70
2022/09/03 09:15:34;;;;;;;2.25;1.80;;;;;;;24.38;37.75;99878.44;7605961;32;39794;-71
2022/09/03 09:20:27;;;;;;;8.30;2.00;;;;;;;23.19;37.12;99881.00;7619971;32;38704;-70
2022/09/03 09:24:46;;;;;;;7.95;2.75;;;;;;;24.17;36.23;99874.00;7611988;32;37130;-70
2022/09/03 09:29:09;;;;;;;4.12;1.95;;;;;;;24.28;36.40;99873.44;7611665;32;39294;-70
2022/09/03 09:33:25;;;;;;;4.37;2.00;;;;;;;24.64;37.20;99869.50;7590569;32;285957;-70
2022/09/03 09:37:51;;;;;;;7.30;2.37;;;;;;;25.05;36.09;99867.16;7603378;32;37911;-71
2022/09/03 09:42:11;;;;;;;3.67;2.20;;;;;;;25.31;36.66;99874.06;7601300;32;37299;-70
2022/09/03 09:46:35;;;;;;;6.00;2.25;;;;;;;25.50;35.87;99878.78;7619450;32;39002;-71
2022/09/03 09:51:17;;;;;;;3.40;1.70;;;;;;;25.26;33.31;99874.38;7616790;32;40814;-71
2022/09/03 09:55:33;;;;;;;3.42;1.90;;;;;;;25.54;34.33;99867.69;7615064;32;38586;-71
2022/09/03 10:00:01;;;;;;;5.82;2.00;;;;;;;25.76;34.16;99866.88;7619334;32;36813;-71
2022/09/03 10:04:29;;;;;;;6.28;2.33;;;;;;;25.34;34.04;99861.38;7621230;32;39433;-71
2022/09/03 10:08:48;;;;;;;11.12;2.10;;;;;;;25.29;34.59;99859.69;7603900;32;39906;-70
2022/09/03 10:13:11;;;;;;;4.93;1.73;;;;;;;25.56;34.44;99856.97;7627144;32;38634;-70
2022/09/03 10:17:45;;;;;;;;;;;;;;;25.66;34.68;99859.97;7622250;32;37274;-75
2022/09/03 10:22:04;;;;;;;3.37;1.90;;;;;;;25.98;31.82;99856.13;7612692;32;39445;-72
2022/09/03 10:26:28;;;;;;;8.77;1.95;;;;;;;25.79;32.37;99863.34;7622667;32;41201;-72
2022/09/03 10:31:07;;;;;;;4.55;1.83;;;;;;;25.64;34.28;99861.50;7625934;32;38029;-73
2022/09/03 10:35:31;;;;;;;2.78;1.73;;;;;;;26.56;31.69;99849.34;7624602;32;37520;-73
2022/09/03 10:40:09;;;;;;;2.42;1.45;;;;;;;26.20;31.56;99858.06;7632025;32;39988;-73
2022/09/03 10:44:38;;;;;;;3.50;1.60;;;;;;;27.24;28.51;99852.22;7632170;32;39779;-73
2022/09/03 10:49:13;;;;;;;6.75;1.73;;;;;;;26.88;29.49;99847.00;7632178;32;37673;-73
2022/09/03 10:53:48;;;;;;;5.35;1.95;;;;;;;27.71;26.79;99845.06;7631611;32;36983;-73
2022/09/03 10:58:22;;;;;;;3.25;1.40;;;;;;;27.53;27.11;99839.34;7630319;32;39362;-73
2022/09/03 11:02:39;;;;;;;3.72;1.40;;;;;;;28.12;26.69;99833.03;7603519;32;39944;-73
2022/09/03 11:07:08;;;;;;;3.12;1.20;;;;;;;28.28;22.45;99819.50;7607385;32;38130;-73
2022/09/03 11:11:37;;;;;;;1.27;1.10;;;;;;;27.92;22.87;99824.84;7629537;32;37101;-73
2022/09/03 11:16:12;;;;;;;2.35;1.67;;;;;;;28.92;22.71;99818.19;7610483;32;39304;-76
2022/09/03 11:20:30;;;;;;;4.97;1.62;;;;;;;29.25;24.13;99813.50;7609916;32;39640;-74
2022/09/03 11:24:53;;;;;;;3.35;1.70;;;;;;;28.13;25.28;99818.63;7628718;32;37708;-71
2022/09/03 11:29:40;;;;;;;3.78;1.42;;;;;;;28.57;23.76;99808.47;7618394;32;36686;-71
2022/09/03 11:34:09;;;;;;;8.15;1.60;;;;;;;28.93;24.91;99809.41;7597964;32;40109;-72
2022/09/03 11:38:31;;;;;;;3.95;1.50;;;;;;;28.90;25.20;99810.19;7606190;32;39684;-71
2022/09/03 11:42:47;;;;;;;4.05;1.60;;;;;;;27.88;25.93;99824.81;7627060;32;38635;-71
2022/09/03 11:47:36;;;;;;;6.22;1.50;;;;;;;27.70;27.46;99824.69;7631653;32;37249;-75
2022/09/03 11:52:00;;;;;;;2.92;1.70;;;;;;;29.08;28.02;99827.09;7598287;32;39269;-72
2022/09/03 11:56:19;;;;;;;2.58;1.50;;;;;;;29.57;26.60;99825.56;7606117;32;40802;-73
2022/09/03 12:00:44;;;;;;;2.03;1.45;;;;;;;29.25;25.02;99817.09;7615325;32;37870;-73
2022/09/03 12:05:05;;;;;;;3.85;1.40;;;;;;;29.28;25.45;99824.72;7628428;32;37842;-73
2022/09/03 12:09:50;;;;;;;3.22;1.45;;;;;;;29.23;25.54;99827.13;7631259;32;39080;-73
2022/09/03 12:14:18;;;;;;;5.03;1.50;;;;;;;29.12;26.60;99827.88;7624253;32;40001;-73
2022/09/03 12:18:36;;;;;;;2.97;1.55;;;;;;;29.48;25.28;99827.19;7604336;32;39240;-73
2022/09/03 12:22:52;;;;;;;6.12;1.55;;;;;;;30.05;25.35;99820.78;7605362;32;37307;-73
2022/09/03 12:27:12;;;;;;;3.85;1.67;;;;;;;29.72;25.27;99832.00;7605912;32;39584;-73
2022/09/03 12:31:30;;;;;;;4.40;1.75;;;;;;;29.53;25.46;99833.19;7592796;32;40837;-73
2022/09/03 12:36:00;;;;;;;5.80;1.48;;;;;;;29.90;24.52;99814.34;7605495;32;37700;-73
2022/09/03 12:40:28;;;;;;;2.83;1.25;;;;;;;30.41;23.69;99820.69;7605508;32;37730;-79
2022/09/03 12:44:45;;;;;;;2.08;1.40;;;;;;;29.40;23.72;99806.69;7615867;32;39324;-72
2022/09/03 12:49:06;;;;;;;4.50;1.20;;;;;;;30.26;22.85;99809.47;7605297;32;40745;-73
2022/09/03 12:53:42;;;;;;;1.87;1.30;;;;;;;30.58;24.19;99797.34;7604632;32;38290;-72
2022/09/03 12:58:17;;;;;;;3.40;1.33;;;;;;;31.27;23.56;99792.16;7608825;32;37196;-73
2022/09/03 13:02:39;;;;;;;2.20;1.40;;;;;;;31.52;21.17;99786.34;7622633;32;39341;-73
2022/09/03 13:07:10;;;;;;;4.12;1.37;;;;;;;29.93;22.55;99803.09;7628024;32;40043;-73
2022/09/03 13:11:27;;;;;;;3.08;1.55;;;;;;;30.75;23.18;99792.03;7609644;32;35785;-73
2022/09/03 13:15:55;;;;;;;1.98;1.40;;;;;;;30.13;22.63;99797.03;7604571;32;37415;-72
2022/09/03 13:20:40;;;;;;;4.50;1.35;;;;;;;29.98;22.31;99787.03;7604709;32;39461;-73
2022/09/03 13:24:59;;;;;;;4.72;1.60;;;;;;;30.93;22.83;99795.59;7624303;32;40650;-73
2022/09/03 13:29:34;;;;;;;1.98;1.20;;;;;;;31.60;21.40;99787.13;7628215;32;36869;-73
2022/09/03 13:34:01;;;;;;;3.00;1.33;;;;;;;31.56;20.85;99780.69;7607288;32;37132;-73
2022/09/03 13:38:42;;;;;;;4.32;1.40;;;;;;;30.93;21.80;99781.53;7607776;32;39246;-72
2022/09/03 13:43:52;;;;;;;3.10;1.45;;;;;;;30.13;23.03;99781.00;7601484;32;39665;-72
2022/09/03 13:53:23;;;;;;;1.58;1.15;;;;;;;30.67;23.81;99769.56;7602126;32;37740;-72
2022/09/03 13:57:57;;;;;;;1.45;1.12;;;;;;;30.71;22.80;99778.78;7581208;33;39878;-73
2022/09/03 14:02:43;;;;;;;5.40;1.58;;;;;;;30.52;22.40;99771.63;7580973;33;40893;-73
2022/09/03 14:07:05;;;;;;;1.77;1.23;;;;;;;29.76;22.53;99781.47;7581473;33;38493;-72
2022/09/03 14:11:47;;;;;;;2.00;1.30;;;;;;;29.72;23.74;99775.81;7568595;33;37229;-72
2022/09/03 14:16:24;;;;;;;7.00;1.40;;;;;;;29.39;24.82;99777.84;7581572;33;40341;-73
2022/09/03 14:20:45;;;;;;;4.10;1.50;;;;;;;29.17;25.25;99773.41;7581251;33;39975;-73
2022/09/03 14:25:29;;;;;;;4.35;1.27;;;;;;;29.84;23.67;99763.41;7581191;33;38031;-73
2022/09/03 14:29:58;;;;;;;3.12;1.20;;;;;;;30.09;23.58;99754.09;7581090;33;37055;-72
2022/09/03 14:34:45;;;;;;;3.78;1.75;;;;;;;30.75;23.64;99759.06;7581229;33;40008;-73
2022/09/03 14:39:15;;;;;;;3.08;1.42;;;;;;;31.02;23.91;99756.53;7581077;33;39614;-73
2022/09/03 14:44:02;;;;;;;4.07;1.40;;;;;;;31.04;23.43;99762.53;7580777;33;37655;-72
2022/09/03 14:48:39;;;;;;;3.67;1.85;;;;;;;31.44;23.48;99763.06;7573253;33;38031;-72
2022/09/03 14:52:58;;;;;;;2.28;1.33;;;;;;;31.42;22.59;99751.38;7580947;33;40223;-72
2022/09/03 14:57:47;;;;;;;1.55;1.10;;;;;;;31.33;22.49;99751.06;7580827;33;39727;-73
2022/09/03 15:02:32;;;;;;;1.92;1.17;;;;;;;29.90;21.73;99753.34;7568433;33;37563;-72
2022/09/03 15:07:01;;;;;;;1.52;1.10;;;;;;;30.74;21.23;99751.06;7570243;33;36842;-72
2022/09/03 15:11:25;;;;;;;1.55;1.00;;;;;;;30.83;21.31;99754.22;7580878;33;39242;-73
2022/09/03 15:15:41;;;;;;;1.37;1.10;;;;;;;29.75;22.69;99769.41;7568130;33;39664;-72
2022/09/03 15:20:13;;;;;;;4.40;1.08;;;;;;;29.18;23.05;99764.59;7580576;33;37848;-73
2022/09/03 15:24:36;;;;;;;5.53;1.58;;;;;;;29.49;22.84;99762.16;7580303;33;37865;-73
2022/09/03 15:29:16;;;;;;;4.07;1.52;;;;;;;28.66;23.76;99764.03;7566952;33;40191;-73
2022/09/03 15:34:00;;;;;;;3.47;1.50;;;;;;;28.71;23.36;99768.47;7580347;33;40780;-73
2022/09/03 15:38:31;;;;;;;3.58;1.52;;;;;;;28.33;24.44;99771.47;7562767;32;37917;-73
2022/09/03 15:42:51;;;;;;;4.62;1.30;;;;;;;28.34;25.14;99772.25;7567685;33;37844;-73
2022/09/03 15:47:11;;;;;;;3.20;1.33;;;;;;;28.41;24.99;99763.91;7567561;33;39331;-74
2022/09/03 15:51:40;;;;;;;2.67;1.20;;;;;;;28.52;24.39;99761.94;7566610;33;40752;-73
2022/09/03 15:56:18;;;;;;;3.78;1.20;;;;;;;28.93;23.79;99758.09;7567684;33;38007;-73
2022/09/03 16:00:59;;;;;;;2.33;1.40;;;;;;;29.02;26.01;99756.50;7580102;33;37016;-73
2022/09/03 16:05:23;;;;;;;2.22;1.27;;;;;;;28.82;24.19;99763.66;7569004;33;40214;-73
2022/09/03 16:10:01;;;;;;;3.67;1.20;;;;;;;29.30;24.42;99762.56;7567032;33;39990;-73
2022/09/03 16:15:04;;;;;;;1.70;1.30;;;;;;;29.61;25.08;99755.34;7579575;33;39059;-73
2022/09/03 16:19:40;;;;;;;2.05;1.30;;;;;;;29.71;25.03;99754.53;7563327;33;37994;-73
2022/09/03 16:24:01;;;;;;;2.83;1.20;;;;;;;29.98;24.06;99754.12;7567894;33;38510;-73
2022/09/03 16:28:28;;;;;;;3.08;1.12;;;;;;;30.07;22.19;99748.09;7579467;33;38597;-73
2022/09/03 16:33:08;;;;;;;4.30;1.75;;;;;;;29.19;23.24;99766.19;7566358;33;38851;-73
2022/09/03 16:37:39;;;;;;;4.80;1.77;;;;;;;28.45;24.54;99773.13;7579322;33;37994;-73
2022/09/03 16:42:28;;;;;;;3.33;1.70;;;;;;;28.13;25.59;99772.97;7579413;33;40101;-73
2022/09/03 16:47:22;;;;;;;4.00;1.40;;;;;;;28.22;26.37;99779.03;7566112;32;39729;-73
2022/09/03 16:52:22;;;;;;;1.98;1.30;;;;;;;28.35;27.54;99771.09;7579018;33;37845;-73
2022/09/03 16:57:05;;;;;;;3.50;1.10;;;;;;;28.27;27.40;99776.66;7570166;33;36810;-73
2022/09/03 17:01:41;;;;;;;1.95;1.17;;;;;;;28.09;27.49;99776.53;7579064;33;39086;-73
2022/09/03 17:06:20;;;;;;;11.32;1.73;;;;;;;28.04;28.35;99770.50;7567348;33;40552;-72
2022/09/03 17:11:01;;;;;;;3.50;1.40;;;;;;;27.76;30.22;99782.31;7594493;32;38679;-79
2022/09/03 17:15:24;;;;;;;5.07;1.60;;;;;;;27.26;32.29;99793.84;7607685;32;37059;-72
2022/09/03 17:19:43;;;;;;;7.78;1.60;;;;;;;26.83;33.35;99790.63;7601927;32;40089;-77
2022/09/03 17:24:15;;;;;;;3.22;1.70;;;;;;;26.51;34.27;99799.38;7615816;32;40854;-75
2022/09/03 17:28:46;;;;;;;9.45;2.10;;;;;;;26.22;34.80;99799.00;7624131;32;37677;-76
2022/09/03 17:33:34;;;;;;;3.58;1.73;;;;;;;25.94;34.90;99802.13;7633429;32;37045;-78
2022/09/03 17:38:28;;;;;;;8.43;2.60;;;;;;;25.61;35.30;99814.78;7633760;32;40035;-77
2022/09/03 17:42:49;;;;;;;17.00;5.80;;;;;;;25.22;36.97;99815.69;7633549;32;40219;-77
2022/09/03 17:47:23;;;;;;;8.80;3.58;;;;;;;25.03;36.92;99818.53;7620742;32;37647;-71
2022/09/03 17:51:58;;;;;;;107.00;60.88;;;;;;;24.81;37.62;99820.06;7633565;32;37247;-71
2022/09/03 17:56:30;;;;;;;9.75;4.15;;;;;;;24.50;38.02;99825.37;7633134;32;39157;-72
2022/09/03 18:00:57;;;;;;;2.20;1.50;;;;;;;24.29;38.81;99833.28;7632146;32;39675;-72
2022/09/03 18:05:40;;;;;;;2.22;1.40;;;;;;;24.07;39.26;99840.31;7632044;32;38757;-72
2022/09/03 18:10:02;;;;;;;6.40;1.90;;;;;;;23.68;39.75;99846.53;7619734;32;36810;-71
2022/09/03 18:14:38;;;;;;;11.00;2.40;;;;;;;23.43;40.10;99857.00;7628974;32;40077;-71
2022/09/03 20:14:16;;;;;;;5.50;2.47;;;;;;;20.78;45.84;99925.75;7579626;33;39934;-70
2022/09/03 20:19:10;;;;;;;10.82;2.15;;;;;;;20.55;46.01;99918.88;7586165;32;38946;-69
2022/09/03 20:24:18;;;;;;;4.28;2.10;;;;;;;20.45;46.28;99936.69;7631652;32;38409;-70
2022/09/03 20:28:56;;;;;;;4.75;2.85;;;;;;;20.45;45.71;99942.22;7618701;32;39412;-72
2022/09/03 20:33:33;;;;;;;12.02;3.62;;;;;;;20.46;46.93;99938.31;7625700;32;39840;-71
2022/09/03 20:38:15;;;;;;;19.60;2.80;;;;;;;20.21;48.51;99937.31;7623839;32;38509;-72
2022/09/03 20:42:40;;;;;;;5.82;2.37;;;;;;;20.29;47.72;99938.41;7631145;32;38002;-71
2022/09/03 20:47:04;;;;;;;4.22;2.42;;;;;;;20.19;48.07;99937.63;7629938;32;39260;-70
2022/09/03 20:51:34;;;;;;;4.20;2.37;;;;;;;20.11;48.88;99938.50;7631011;32;40880;-71
2022/09/03 20:55:57;;;;;;;6.22;2.37;;;;;;;20.04;48.93;99943.72;7623802;32;37953;-71
2022/09/03 21:00:17;;;;;;;4.73;2.10;;;;;;;20.03;48.93;99953.19;7626316;32;37163;-71
2022/09/03 21:05:00;;;;;;;5.12;2.50;;;;;;;19.83;49.89;99969.38;7626069;32;39352;-71
2022/09/03 21:09:27;;;;;;;5.62;2.50;;;;;;;19.90;49.94;99977.13;7600461;32;40848;-70
2022/09/03 21:14:05;;;;;;;3.87;2.28;;;;;;;19.97;49.76;99976.63;7604322;32;38010;-70
2022/09/03 21:19:02;;;;;;;4.20;2.65;;;;;;;19.81;50.19;99977.16;7605090;32;36763;-70
2022/09/03 21:23:25;;;;;;;4.93;1.92;;;;;;;19.58;50.82;99984.03;7604206;32;39452;-71
2022/09/03 21:28:05;;;;;;;4.30;1.90;;;;;;;19.37;50.41;99976.41;7602360;32;39611;-70
2022/09/03 21:32:34;;;;;;;2.53;1.77;;;;;;;19.41;49.69;99982.91;7600181;32;37555;-71
2022/09/03 21:36:50;;;;;;;2.47;1.80;;;;;;;19.28;49.15;99983.88;7604321;32;37170;-70
2022/09/03 21:41:40;;;;;;;4.20;2.20;;;;;;;19.43;48.44;99980.59;7598516;32;40025;-70
2022/09/03 21:46:07;;;;;;;3.40;1.85;;;;;;;19.35;49.03;99991.69;7601436;32;40768;-70
2022/09/03 21:50:35;;;;;;;6.32;2.08;;;;;;;19.26;48.89;99991.69;7604339;32;38025;-70
2022/09/03 21:54:51;;;;;;;2.80;2.15;;;;;;;19.24;49.16;99983.72;7600597;32;37044;-70
2022/09/03 21:59:27;;;;;;;5.22;2.47;;;;;;;19.28;49.23;99994.91;7607240;32;39590;-69
2022/09/03 22:03:43;;;;;;;5.80;2.50;;;;;;;19.38;49.21;99991.84;7607163;32;39618;-69
2022/09/03 22:08:02;;;;;;;6.28;2.62;;;;;;;19.25;50.03;99982.59;7607066;32;37603;-69
2022/09/03 22:12:28;;;;;;;5.22;2.47;;;;;;;19.26;50.36;99983.38;7607145;32;37044;-69
2022/09/03 22:17:09;;;;;;;4.18;2.45;;;;;;;19.20;50.65;99987.47;7607229;32;39155;-69
2022/09/03 22:21:25;;;;;;;6.43;2.83;;;;;;;19.03;51.19;99993.78;7628149;32;40714;-69
2022/09/03 22:26:06;;;;;;;7.03;2.80;;;;;;;18.98;51.06;99992.00;7632905;32;37831;-69
2022/09/03 22:30:22;;;;;;;4.47;2.78;;;;;;;18.84;51.57;100005.12;7632800;32;38024;-69
2022/09/03 22:34:59;;;;;;;5.72;2.80;;;;;;;18.84;51.84;100010.66;7630924;32;40157;-69
2022/09/03 22:39:27;;;;;;;5.87;2.78;;;;;;;18.82;51.89;100010.16;7628573;32;39926;-68
2022/09/03 22:44:21;;;;;;;5.78;2.90;;;;;;;18.60;53.35;100019.34;7632693;32;38800;-69
2022/09/03 22:48:43;;;;;;;9.82;2.92;;;;;;;18.63;53.41;100007.66;7627492;32;37949;-69
2022/09/03 22:53:36;;;;;;;4.05;2.40;;;;;;;18.33;52.79;100004.62;7606696;32;39129;-69
2022/09/03 22:57:57;;;;;;;6.67;2.90;;;;;;;18.44;52.84;100018.94;7619833;32;39948;-68